sensor_id;sensor_type;location;lat;lon;timestamp;pressure;altitude;pressure_sealevel;temperature;humidity
57885;BME280;43703;51.060;-0.086;2023-02-19T00:00:32;100817.78;;;5.65;75.66
57885;BME280;43703;51.060;-0.086;2023-02-19T00:02:57;100829.86;;;5.70;75.56
57885;BME280;43703;51.060;-0.086;2023-02-19T00:05:23;100836.05;;;5.58;78.23
57885;BME280;43703;51.060;-0.086;2023-02-19T00:07:49;100832.16;;;5.11;79.19
57885;BME280;43703;51.060;-0.086;2023-02-19T00:10:14;100840.41;;;5.91;78.16
57885;BME280;43703;51.060;-0.086;2023-02-19T00:12:39;100847.04;;;6.15;77.58
57885;BME280;43703;51.060;-0.086;2023-02-19T00:15:05;100848.64;;;5.44;78.02
57885;BME280;43703;51.060;-0.086;2023-02-19T00:17:30;100844.23;;;6.35;76.59
57885;BME280;43703;51.060;-0.086;2023-02-19T00:19:54;100847.26;;;5.98;76.64
57885;BME280;43703;51.060;-0.086;2023-02-19T00:22:19;100851.49;;;6.19;75.48
57885;BME280;43703;51.060;-0.086;2023-02-19T00:24:45;100857.15;;;5.86;76.65
57885;BME280;43703;51.060;-0.086;2023-02-19T00:27:10;100858.08;;;6.00;74.75
57885;BME280;43703;51.060;-0.086;2023-02-19T00:29:35;100854.22;;;6.07;75.88
57885;BME280;43703;51.060;-0.086;2023-02-19T00:32:00;100852.95;;;5.75;76.69
57885;BME280;43703;51.060;-0.086;2023-02-19T00:34:25;100857.09;;;5.66;76.10
57885;BME280;43703;51.060;-0.086;2023-02-19T00:36:51;100866.58;;;5.95;75.20
57885;BME280;43703;51.060;-0.086;2023-02-19T00:39:16;100876.52;;;5.69;76.02
57885;BME280;43703;51.060;-0.086;2023-02-19T00:41:42;100872.40;;;5.89;77.01
57885;BME280;43703;51.060;-0.086;2023-02-19T00:44:09;100863.23;;;5.74;77.12
57885;BME280;43703;51.060;-0.086;2023-02-19T00:46:32;100877.41;;;4.76;80.92
57885;BME280;43703;51.060;-0.086;2023-02-19T00:48:57;100881.32;;;5.40;78.51
57885;BME280;43703;51.060;-0.086;2023-02-19T00:51:24;100883.74;;;5.36;78.72
57885;BME280;43703;51.060;-0.086;2023-02-19T00:53:48;100886.73;;;5.01;79.90
57885;BME280;43703;51.060;-0.086;2023-02-19T00:56:13;100885.71;;;5.47;79.24
57885;BME280;43703;51.060;-0.086;2023-02-19T00:58:39;100889.69;;;5.45;79.52
57885;BME280;43703;51.060;-0.086;2023-02-19T01:01:05;100886.36;;;5.55;81.25
57885;BME280;43703;51.060;-0.086;2023-02-19T01:03:29;100883.12;;;5.49;79.90
57885;BME280;43703;51.060;-0.086;2023-02-19T01:05:54;100891.70;;;5.27;80.30
57885;BME280;43703;51.060;-0.086;2023-02-19T01:08:20;100890.76;;;5.32;80.16
57885;BME280;43703;51.060;-0.086;2023-02-19T01:10:45;100896.23;;;5.23;80.73
57885;BME280;43703;51.060;-0.086;2023-02-19T01:13:10;100898.26;;;5.60;78.47
57885;BME280;43703;51.060;-0.086;2023-02-19T01:15:37;100899.41;;;5.44;80.48
57885;BME280;43703;51.060;-0.086;2023-02-19T01:18:00;100898.81;;;5.61;79.98
57885;BME280;43703;51.060;-0.086;2023-02-19T01:20:26;100901.16;;;5.50;79.57
57885;BME280;43703;51.060;-0.086;2023-02-19T01:22:51;100904.34;;;5.54;81.01
57885;BME280;43703;51.060;-0.086;2023-02-19T01:25:16;100905.68;;;5.31;80.76
57885;BME280;43703;51.060;-0.086;2023-02-19T01:27:41;100909.06;;;5.48;80.34
57885;BME280;43703;51.060;-0.086;2023-02-19T01:30:06;100913.13;;;5.64;79.97
57885;BME280;43703;51.060;-0.086;2023-02-19T01:32:31;100916.58;;;5.44;79.95
57885;BME280;43703;51.060;-0.086;2023-02-19T01:34:57;100916.32;;;5.44;80.54
57885;BME280;43703;51.060;-0.086;2023-02-19T01:37:22;100914.42;;;5.37;80.12
57885;BME280;43703;51.060;-0.086;2023-02-19T01:39:47;100915.54;;;5.97;79.38
57885;BME280;43703;51.060;-0.086;2023-02-19T01:42:14;100915.01;;;6.14;78.35
57885;BME280;43703;51.060;-0.086;2023-02-19T01:47:03;100907.75;;;5.63;76.95
57885;BME280;43703;51.060;-0.086;2023-02-19T01:49:30;100910.44;;;5.57;78.11
57885;BME280;43703;51.060;-0.086;2023-02-19T01:51:56;100913.82;;;6.15;78.20
57885;BME280;43703;51.060;-0.086;2023-02-19T01:54:21;100917.42;;;5.43;78.32
57885;BME280;43703;51.060;-0.086;2023-02-19T01:56:46;100921.17;;;5.62;78.29
57885;BME280;43703;51.060;-0.086;2023-02-19T01:59:10;100921.27;;;5.84;78.35
57885;BME280;43703;51.060;-0.086;2023-02-19T02:01:36;100923.11;;;5.45;78.88
57885;BME280;43703;51.060;-0.086;2023-02-19T02:04:00;100925.18;;;5.96;77.34
57885;BME280;43703;51.060;-0.086;2023-02-19T02:06:29;100923.45;;;5.32;78.05
57885;BME280;43703;51.060;-0.086;2023-02-19T02:08:54;100924.41;;;5.63;77.13
57885;BME280;43703;51.060;-0.086;2023-02-19T02:11:17;100925.26;;;6.34;73.17
57885;BME280;43703;51.060;-0.086;2023-02-19T02:13:42;100928.44;;;5.57;76.65
57885;BME280;43703;51.060;-0.086;2023-02-19T02:16:18;100929.61;;;5.34;77.51
57885;BME280;43703;51.060;-0.086;2023-02-19T02:18:40;100937.14;;;5.35;78.17
57885;BME280;43703;51.060;-0.086;2023-02-19T02:21:13;100930.35;;;5.41;77.18
57885;BME280;43703;51.060;-0.086;2023-02-19T02:23:36;100929.33;;;4.70;78.21
57885;BME280;43703;51.060;-0.086;2023-02-19T02:25:58;100934.08;;;4.81;77.56
57885;BME280;43703;51.060;-0.086;2023-02-19T02:28:23;100938.33;;;4.74;78.23
57885;BME280;43703;51.060;-0.086;2023-02-19T02:30:42;100938.46;;;4.26;80.03
57885;BME280;43703;51.060;-0.086;2023-02-19T02:33:12;100936.91;;;4.62;78.82
57885;BME280;43703;51.060;-0.086;2023-02-19T02:35:35;100934.80;;;4.86;78.07
57885;BME280;43703;51.060;-0.086;2023-02-19T02:38:00;100931.22;;;4.78;77.53
57885;BME280;43703;51.060;-0.086;2023-02-19T02:40:21;100933.52;;;4.65;77.22
57885;BME280;43703;51.060;-0.086;2023-02-19T02:42:46;100931.85;;;5.05;76.52
57885;BME280;43703;51.060;-0.086;2023-02-19T02:45:22;100930.74;;;4.55;77.44
57885;BME280;43703;51.060;-0.086;2023-02-19T02:47:40;100933.68;;;5.17;76.82
57885;BME280;43703;51.060;-0.086;2023-02-19T02:50:01;100936.50;;;5.44;75.12
57885;BME280;43703;51.060;-0.086;2023-02-19T02:52:26;100938.29;;;5.38;74.33
57885;BME280;43703;51.060;-0.086;2023-02-19T02:54:51;100938.90;;;4.74;77.72
57885;BME280;43703;51.060;-0.086;2023-02-19T02:57:17;100945.89;;;4.24;78.51
57885;BME280;43703;51.060;-0.086;2023-02-19T02:59:42;100947.79;;;4.56;76.65
57885;BME280;43703;51.060;-0.086;2023-02-19T03:02:09;100956.76;;;4.83;77.27
57885;BME280;43703;51.060;-0.086;2023-02-19T03:04:34;100964.06;;;4.34;77.61
57885;BME280;43703;51.060;-0.086;2023-02-19T03:07:00;100968.07;;;4.58;77.56
57885;BME280;43703;51.060;-0.086;2023-02-19T03:09:24;100965.96;;;4.90;75.79
57885;BME280;43703;51.060;-0.086;2023-02-19T03:11:49;100963.20;;;4.39;76.15
57885;BME280;43703;51.060;-0.086;2023-02-19T03:14:15;100967.77;;;4.15;76.20
57885;BME280;43703;51.060;-0.086;2023-02-19T03:16:38;100972.48;;;4.11;78.19
57885;BME280;43703;51.060;-0.086;2023-02-19T03:19:03;100971.90;;;4.37;77.62
57885;BME280;43703;51.060;-0.086;2023-02-19T03:21:27;100967.91;;;4.68;74.79
57885;BME280;43703;51.060;-0.086;2023-02-19T03:23:52;100968.67;;;4.30;76.75
57885;BME280;43703;51.060;-0.086;2023-02-19T03:26:18;100965.50;;;4.50;77.71
57885;BME280;43703;51.060;-0.086;2023-02-19T03:28:45;100962.00;;;4.86;76.19
57885;BME280;43703;51.060;-0.086;2023-02-19T03:31:09;100968.65;;;4.24;78.61
57885;BME280;43703;51.060;-0.086;2023-02-19T03:33:33;100972.79;;;4.15;78.08
57885;BME280;43703;51.060;-0.086;2023-02-19T03:36:01;100972.33;;;3.86;80.82
57885;BME280;43703;51.060;-0.086;2023-02-19T03:38:27;100979.19;;;3.79;80.16
57885;BME280;43703;51.060;-0.086;2023-02-19T03:40:55;100986.85;;;4.09;79.69
57885;BME280;43703;51.060;-0.086;2023-02-19T03:43:17;100984.36;;;3.43;81.17
57885;BME280;43703;51.060;-0.086;2023-02-19T03:45:47;100985.36;;;3.90;80.87
57885;BME280;43703;51.060;-0.086;2023-02-19T03:48:17;100991.46;;;3.58;79.29
57885;BME280;43703;51.060;-0.086;2023-02-19T03:50:35;100996.99;;;3.54;80.05
57885;BME280;43703;51.060;-0.086;2023-02-19T03:53:00;100997.72;;;3.60;81.15
57885;BME280;43703;51.060;-0.086;2023-02-19T03:55:25;100998.77;;;3.37;80.69
57885;BME280;43703;51.060;-0.086;2023-02-19T03:57:50;101002.69;;;3.42;80.35
57885;BME280;43703;51.060;-0.086;2023-02-19T04:00:14;101002.31;;;3.99;79.93
57885;BME280;43703;51.060;-0.086;2023-02-19T04:02:40;101010.55;;;3.60;79.28
57885;BME280;43703;51.060;-0.086;2023-02-19T04:05:05;101010.04;;;4.54;77.76
57885;BME280;43703;51.060;-0.086;2023-02-19T04:07:29;101004.78;;;4.09;79.03
57885;BME280;43703;51.060;-0.086;2023-02-19T04:09:52;101003.09;;;3.60;81.39
57885;BME280;43703;51.060;-0.086;2023-02-19T04:12:18;101004.20;;;3.63;81.68
57885;BME280;43703;51.060;-0.086;2023-02-19T04:14:45;101009.18;;;3.36;81.18
57885;BME280;43703;51.060;-0.086;2023-02-19T04:17:10;101012.16;;;3.53;81.76
57885;BME280;43703;51.060;-0.086;2023-02-19T04:19:34;101025.19;;;4.07;79.53
57885;BME280;43703;51.060;-0.086;2023-02-19T04:21:58;101026.68;;;3.41;80.79
57885;BME280;43703;51.060;-0.086;2023-02-19T04:24:27;101028.64;;;4.11;79.16
57885;BME280;43703;51.060;-0.086;2023-02-19T04:26:48;101028.87;;;4.13;77.45
57885;BME280;43703;51.060;-0.086;2023-02-19T04:29:13;101033.69;;;4.38;76.33
57885;BME280;43703;51.060;-0.086;2023-02-19T04:31:38;101042.79;;;3.51;77.78
57885;BME280;43703;51.060;-0.086;2023-02-19T04:34:03;101050.05;;;4.14;76.04
57885;BME280;43703;51.060;-0.086;2023-02-19T04:36:28;101053.16;;;4.47;75.24
57885;BME280;43703;51.060;-0.086;2023-02-19T04:38:53;101056.75;;;4.14;76.23
57885;BME280;43703;51.060;-0.086;2023-02-19T04:41:19;101053.23;;;3.65;75.22
57885;BME280;43703;51.060;-0.086;2023-02-19T04:43:44;101048.94;;;4.39;75.08
57885;BME280;43703;51.060;-0.086;2023-02-19T04:46:09;101054.10;;;2.88;80.17
57885;BME280;43703;51.060;-0.086;2023-02-19T04:48:34;101059.88;;;3.60;78.55
57885;BME280;43703;51.060;-0.086;2023-02-19T04:50:59;101065.38;;;3.59;77.53
57885;BME280;43703;51.060;-0.086;2023-02-19T04:53:25;101069.76;;;3.88;77.61
57885;BME280;43703;51.060;-0.086;2023-02-19T04:55:50;101076.18;;;3.47;77.54
57885;BME280;43703;51.060;-0.086;2023-02-19T04:58:15;101074.09;;;3.94;75.43
57885;BME280;43703;51.060;-0.086;2023-02-19T05:00:40;101079.44;;;4.89;73.19
57885;BME280;43703;51.060;-0.086;2023-02-19T05:03:07;101082.49;;;4.25;72.73
57885;BME280;43703;51.060;-0.086;2023-02-19T05:05:31;101083.94;;;4.18;72.80
57885;BME280;43703;51.060;-0.086;2023-02-19T05:07:57;101084.19;;;4.05;72.48
57885;BME280;43703;51.060;-0.086;2023-02-19T05:10:22;101084.16;;;4.53;73.10
57885;BME280;43703;51.060;-0.086;2023-02-19T05:12:47;101091.51;;;4.29;75.34
57885;BME280;43703;51.060;-0.086;2023-02-19T05:15:13;101095.36;;;4.18;74.30
57885;BME280;43703;51.060;-0.086;2023-02-19T05:17:37;101100.01;;;4.08;74.46
57885;BME280;43703;51.060;-0.086;2023-02-19T05:20:03;101096.74;;;4.11;73.23
57885;BME280;43703;51.060;-0.086;2023-02-19T05:22:28;101089.88;;;4.26;72.21
57885;BME280;43703;51.060;-0.086;2023-02-19T05:24:52;101091.69;;;4.37;72.04
57885;BME280;43703;51.060;-0.086;2023-02-19T05:27:17;101103.44;;;4.21;72.84
57885;BME280;43703;51.060;-0.086;2023-02-19T05:29:43;101103.16;;;4.15;73.41
57885;BME280;43703;51.060;-0.086;2023-02-19T05:32:08;101106.52;;;4.12;74.24
57885;BME280;43703;51.060;-0.086;2023-02-19T05:34:33;101109.81;;;4.46;73.88
57885;BME280;43703;51.060;-0.086;2023-02-19T05:36:58;101115.60;;;3.32;74.66
57885;BME280;43703;51.060;-0.086;2023-02-19T05:39:23;101120.45;;;3.07;76.57
57885;BME280;43703;51.060;-0.086;2023-02-19T05:41:48;101117.58;;;4.03;74.94
57885;BME280;43703;51.060;-0.086;2023-02-19T05:44:13;101119.82;;;4.08;73.74
57885;BME280;43703;51.060;-0.086;2023-02-19T05:46:38;101126.18;;;4.40;72.92
57885;BME280;43703;51.060;-0.086;2023-02-19T05:49:03;101124.15;;;5.15;71.33
57885;BME280;43703;51.060;-0.086;2023-02-19T05:51:29;101120.39;;;4.65;71.39
57885;BME280;43703;51.060;-0.086;2023-02-19T05:53:55;101124.70;;;3.80;73.98
57885;BME280;43703;51.060;-0.086;2023-02-19T05:56:26;101124.80;;;3.70;75.41
57885;BME280;43703;51.060;-0.086;2023-02-19T05:58:44;101128.71;;;4.28;74.58
57885;BME280;43703;51.060;-0.086;2023-02-19T06:01:13;101129.49;;;4.31;73.58
57885;BME280;43703;51.060;-0.086;2023-02-19T06:03:34;101127.51;;;4.67;71.05
57885;BME280;43703;51.060;-0.086;2023-02-19T06:05:59;101137.44;;;4.48;72.23
57885;BME280;43703;51.060;-0.086;2023-02-19T06:08:25;101136.89;;;4.88;71.93
57885;BME280;43703;51.060;-0.086;2023-02-19T06:10:50;101138.15;;;4.95;69.59
57885;BME280;43703;51.060;-0.086;2023-02-19T06:13:15;101136.75;;;5.34;70.73
57885;BME280;43703;51.060;-0.086;2023-02-19T06:15:40;101129.73;;;5.36;69.27
57885;BME280;43703;51.060;-0.086;2023-02-19T06:18:05;101132.22;;;4.56;71.63
57885;BME280;43703;51.060;-0.086;2023-02-19T06:20:30;101133.24;;;3.96;73.27
57885;BME280;43703;51.060;-0.086;2023-02-19T06:22:55;101139.25;;;3.50;74.47
57885;BME280;43703;51.060;-0.086;2023-02-19T06:25:20;101141.95;;;4.09;72.86
57885;BME280;43703;51.060;-0.086;2023-02-19T06:27:45;101140.05;;;3.57;73.83
57885;BME280;43703;51.060;-0.086;2023-02-19T06:30:11;101141.03;;;3.72;74.87
57885;BME280;43703;51.060;-0.086;2023-02-19T06:32:36;101147.67;;;4.14;72.50
57885;BME280;43703;51.060;-0.086;2023-02-19T06:35:00;101151.84;;;4.35;72.03
57885;BME280;43703;51.060;-0.086;2023-02-19T06:37:25;101158.30;;;5.06;69.72
57885;BME280;43703;51.060;-0.086;2023-02-19T06:39:51;101162.43;;;4.72;71.85
57885;BME280;43703;51.060;-0.086;2023-02-19T06:42:16;101159.16;;;3.92;72.16
57885;BME280;43703;51.060;-0.086;2023-02-19T06:44:42;101158.49;;;4.47;70.91
57885;BME280;43703;51.060;-0.086;2023-02-19T06:47:07;101166.47;;;4.15;71.06
57885;BME280;43703;51.060;-0.086;2023-02-19T06:49:32;101160.30;;;4.30;71.41
57885;BME280;43703;51.060;-0.086;2023-02-19T06:51:57;101157.24;;;3.61;73.56
57885;BME280;43703;51.060;-0.086;2023-02-19T06:54:22;101164.69;;;2.91;75.68
57885;BME280;43703;51.060;-0.086;2023-02-19T06:56:47;101173.57;;;2.68;78.40
57885;BME280;43703;51.060;-0.086;2023-02-19T06:59:14;101180.18;;;2.78;77.68
57885;BME280;43703;51.060;-0.086;2023-02-19T07:01:38;101177.74;;;2.91;76.53
57885;BME280;43703;51.060;-0.086;2023-02-19T07:04:04;101183.39;;;2.72;78.53
57885;BME280;43703;51.060;-0.086;2023-02-19T07:06:28;101183.77;;;2.17;80.25
57885;BME280;43703;51.060;-0.086;2023-02-19T07:08:55;101186.70;;;2.41;79.72
57885;BME280;43703;51.060;-0.086;2023-02-19T07:11:19;101180.28;;;2.83;77.88
57885;BME280;43703;51.060;-0.086;2023-02-19T07:13:45;101178.89;;;2.35;77.83
57885;BME280;43703;51.060;-0.086;2023-02-19T07:16:12;101176.88;;;3.07;77.53
57885;BME280;43703;51.060;-0.086;2023-02-19T07:18:36;101182.46;;;2.31;78.43
57885;BME280;43703;51.060;-0.086;2023-02-19T07:21:02;101183.67;;;3.40;77.32
57885;BME280;43703;51.060;-0.086;2023-02-19T07:23:26;101186.47;;;2.02;78.23
57885;BME280;43703;51.060;-0.086;2023-02-19T07:25:52;101189.80;;;2.73;77.88
57885;BME280;43703;51.060;-0.086;2023-02-19T07:28:17;101194.64;;;2.50;78.81
57885;BME280;43703;51.060;-0.086;2023-02-19T07:30:42;101206.91;;;2.64;77.94
57885;BME280;43703;51.060;-0.086;2023-02-19T07:33:07;101213.79;;;3.27;75.72
57885;BME280;43703;51.060;-0.086;2023-02-19T07:35:32;101222.76;;;3.46;75.36
57885;BME280;43703;51.060;-0.086;2023-02-19T07:37:57;101226.02;;;3.58;73.01
57885;BME280;43703;51.060;-0.086;2023-02-19T07:40:22;101233.33;;;3.80;73.50
57885;BME280;43703;51.060;-0.086;2023-02-19T07:42:47;101236.34;;;3.70;74.69
57885;BME280;43703;51.060;-0.086;2023-02-19T07:45:12;101238.21;;;3.37;74.20
57885;BME280;43703;51.060;-0.086;2023-02-19T07:47:37;101240.28;;;3.38;75.96
57885;BME280;43703;51.060;-0.086;2023-02-19T07:50:03;101231.73;;;3.25;75.87
57885;BME280;43703;51.060;-0.086;2023-02-19T07:52:28;101228.21;;;2.78;77.68
57885;BME280;43703;51.060;-0.086;2023-02-19T07:54:53;101220.82;;;3.95;74.96
57885;BME280;43703;51.060;-0.086;2023-02-19T07:57:18;101227.99;;;3.28;76.82
57885;BME280;43703;51.060;-0.086;2023-02-19T07:59:44;101242.05;;;3.58;76.02
57885;BME280;43703;51.060;-0.086;2023-02-19T08:02:14;101250.49;;;3.59;75.96
57885;BME280;43703;51.060;-0.086;2023-02-19T08:04:34;101257.41;;;3.82;75.64
57885;BME280;43703;51.060;-0.086;2023-02-19T08:06:59;101261.21;;;5.08;72.10
57885;BME280;43703;51.060;-0.086;2023-02-19T08:09:25;101262.69;;;4.23;74.50
57885;BME280;43703;51.060;-0.086;2023-02-19T08:11:50;101256.76;;;4.25;74.55
57885;BME280;43703;51.060;-0.086;2023-02-19T08:14:15;101259.95;;;3.74;76.12
57885;BME280;43703;51.060;-0.086;2023-02-19T08:16:47;101263.19;;;4.54;74.30
57885;BME280;43703;51.060;-0.086;2023-02-19T08:19:06;101260.47;;;4.35;74.88
57885;BME280;43703;51.060;-0.086;2023-02-19T08:21:31;101259.11;;;3.71;74.84
57885;BME280;43703;51.060;-0.086;2023-02-19T08:23:56;101253.64;;;4.26;74.10
57885;BME280;43703;51.060;-0.086;2023-02-19T08:26:22;101248.02;;;4.09;74.75
57885;BME280;43703;51.060;-0.086;2023-02-19T08:28:47;101252.66;;;3.92;75.41
57885;BME280;43703;51.060;-0.086;2023-02-19T08:31:12;101264.83;;;4.88;73.63
57885;BME280;43703;51.060;-0.086;2023-02-19T08:33:37;101270.15;;;4.06;74.87
57885;BME280;43703;51.060;-0.086;2023-02-19T08:36:03;101280.20;;;3.93;74.45
57885;BME280;43703;51.060;-0.086;2023-02-19T08:38:27;101290.61;;;4.15;74.28
57885;BME280;43703;51.060;-0.086;2023-02-19T08:40:52;101292.55;;;4.07;74.63
57885;BME280;43703;51.060;-0.086;2023-02-19T08:43:17;101297.65;;;4.10;74.41
57885;BME280;43703;51.060;-0.086;2023-02-19T08:45:43;101296.11;;;3.76;74.96
57885;BME280;43703;51.060;-0.086;2023-02-19T08:48:08;101300.87;;;4.13;74.75
57885;BME280;43703;51.060;-0.086;2023-02-19T08:50:33;101316.55;;;4.23;73.14
57885;BME280;43703;51.060;-0.086;2023-02-19T08:52:58;101326.33;;;3.61;76.16
57885;BME280;43703;51.060;-0.086;2023-02-19T08:55:23;101324.51;;;4.38;75.01
57885;BME280;43703;51.060;-0.086;2023-02-19T08:57:48;101321.77;;;4.76;73.26
57885;BME280;43703;51.060;-0.086;2023-02-19T09:00:15;101324.43;;;5.40;75.10
57885;BME280;43703;51.060;-0.086;2023-02-19T09:02:38;101315.54;;;6.35;73.43
57885;BME280;43703;51.060;-0.086;2023-02-19T09:05:04;101292.16;;;6.64;69.57
57885;BME280;43703;51.060;-0.086;2023-02-19T09:07:28;101295.50;;;8.08;67.77
57885;BME280;43703;51.060;-0.086;2023-02-19T09:09:54;101322.80;;;7.10;67.24
57885;BME280;43703;51.060;-0.086;2023-02-19T09:12:19;101318.94;;;7.72;66.42
57885;BME280;43703;51.060;-0.086;2023-02-19T09:14:44;101316.50;;;7.36;64.91
57885;BME280;43703;51.060;-0.086;2023-02-19T09:17:10;101310.41;;;7.00;66.06
57885;BME280;43703;51.060;-0.086;2023-02-19T09:19:36;101308.74;;;7.42;63.34
57885;BME280;43703;51.060;-0.086;2023-02-19T09:22:01;101312.80;;;7.53;63.07
57885;BME280;43703;51.060;-0.086;2023-02-19T09:24:26;101312.97;;;8.17;61.14
57885;BME280;43703;51.060;-0.086;2023-02-19T09:26:52;101328.97;;;7.44;62.44
57885;BME280;43703;51.060;-0.086;2023-02-19T09:29:16;101337.58;;;6.84;63.37
57885;BME280;43703;51.060;-0.086;2023-02-19T09:31:41;101327.10;;;7.10;64.32
57885;BME280;43703;51.060;-0.086;2023-02-19T09:34:06;101331.11;;;7.12;66.30
57885;BME280;43703;51.060;-0.086;2023-02-19T09:36:31;101322.95;;;9.23;62.44
57885;BME280;43703;51.060;-0.086;2023-02-19T09:38:56;101334.97;;;10.00;59.09
57885;BME280;43703;51.060;-0.086;2023-02-19T09:41:26;101352.43;;;11.99;56.73
57885;BME280;43703;51.060;-0.086;2023-02-19T09:43:46;101357.75;;;12.53;55.81
57885;BME280;43703;51.060;-0.086;2023-02-19T09:46:21;101352.27;;;10.61;55.81
57885;BME280;43703;51.060;-0.086;2023-02-19T09:48:38;101344.60;;;10.86;53.58
57885;BME280;43703;51.060;-0.086;2023-02-19T09:51:04;101333.72;;;12.86;54.17
57885;BME280;43703;51.060;-0.086;2023-02-19T09:53:36;101343.45;;;11.95;50.31
57885;BME280;43703;51.060;-0.086;2023-02-19T09:55:55;101345.44;;;10.88;53.26
57885;BME280;43703;51.060;-0.086;2023-02-19T09:58:25;101337.75;;;11.39;52.58
57885;BME280;43703;51.060;-0.086;2023-02-19T10:00:48;101347.48;;;11.05;53.01
57885;BME280;43703;51.060;-0.086;2023-02-19T10:03:19;101344.82;;;11.56;52.55
57885;BME280;43703;51.060;-0.086;2023-02-19T10:05:39;101346.31;;;14.17;47.56
57885;BME280;43703;51.060;-0.086;2023-02-19T10:08:08;101352.87;;;14.29;47.36
57885;BME280;43703;51.060;-0.086;2023-02-19T10:10:32;101364.21;;;13.29;48.54
57885;BME280;43703;51.060;-0.086;2023-02-19T10:13:13;101369.23;;;13.61;46.91
57885;BME280;43703;51.060;-0.086;2023-02-19T10:15:26;101378.69;;;11.57;50.31
57885;BME280;43703;51.060;-0.086;2023-02-19T10:17:48;101382.94;;;12.04;49.98
57885;BME280;43703;51.060;-0.086;2023-02-19T10:20:15;101373.35;;;12.91;48.41
57885;BME280;43703;51.060;-0.086;2023-02-19T10:22:39;101378.50;;;11.23;50.27
57885;BME280;43703;51.060;-0.086;2023-02-19T10:25:05;101374.95;;;16.13;46.88
57885;BME280;43703;51.060;-0.086;2023-02-19T10:27:31;101369.33;;;16.64;41.94
57885;BME280;43703;51.060;-0.086;2023-02-19T10:29:58;101376.71;;;15.92;42.51
57885;BME280;43703;51.060;-0.086;2023-02-19T10:32:24;101381.84;;;15.46;42.87
57885;BME280;43703;51.060;-0.086;2023-02-19T10:37:16;101385.49;;;12.51;48.66
57885;BME280;43703;51.060;-0.086;2023-02-19T10:39:42;101380.88;;;13.84;48.47
57885;BME280;43703;51.060;-0.086;2023-02-19T10:42:13;101371.56;;;11.48;50.09
57885;BME280;43703;51.060;-0.086;2023-02-19T10:44:37;101381.05;;;15.04;45.58
57885;BME280;43703;51.060;-0.086;2023-02-19T10:46:59;101380.90;;;13.63;47.82
57885;BME280;43703;51.060;-0.086;2023-02-19T10:49:26;101378.77;;;12.15;49.31
57885;BME280;43703;51.060;-0.086;2023-02-19T10:51:51;101379.64;;;11.92;50.22
57885;BME280;43703;51.060;-0.086;2023-02-19T10:54:17;101377.51;;;14.38;47.25
57885;BME280;43703;51.060;-0.086;2023-02-19T10:56:41;101377.10;;;11.42;50.83
57885;BME280;43703;51.060;-0.086;2023-02-19T10:59:14;101381.89;;;13.09;49.98
57885;BME280;43703;51.060;-0.086;2023-02-19T11:01:32;101386.36;;;13.50;46.65
57885;BME280;43703;51.060;-0.086;2023-02-19T11:06:25;101384.94;;;13.28;47.48
57885;BME280;43703;51.060;-0.086;2023-02-19T11:08:53;101381.62;;;13.01;50.04
57885;BME280;43703;51.060;-0.086;2023-02-19T11:11:23;101382.36;;;13.99;46.38
57885;BME280;43703;51.060;-0.086;2023-02-19T11:13:42;101394.63;;;11.26;49.94
57885;BME280;43703;51.060;-0.086;2023-02-19T11:16:08;101389.00;;;11.82;48.33
57885;BME280;43703;51.060;-0.086;2023-02-19T11:18:33;101388.02;;;10.49;51.97
57885;BME280;43703;51.060;-0.086;2023-02-19T11:21:01;101378.26;;;10.40;53.89
57885;BME280;43703;51.060;-0.086;2023-02-19T11:23:27;101381.49;;;10.50;55.03
57885;BME280;43703;51.060;-0.086;2023-02-19T11:25:52;101381.53;;;11.93;51.42
57885;BME280;43703;51.060;-0.086;2023-02-19T11:28:24;101388.89;;;10.83;50.93
57885;BME280;43703;51.060;-0.086;2023-02-19T11:30:44;101388.83;;;12.09;50.01
57885;BME280;43703;51.060;-0.086;2023-02-19T11:35:34;101399.97;;;11.21;54.40
57885;BME280;43703;51.060;-0.086;2023-02-19T11:38:01;101398.83;;;11.14;52.39
57885;BME280;43703;51.060;-0.086;2023-02-19T11:40:39;101398.63;;;11.49;51.33
57885;BME280;43703;51.060;-0.086;2023-02-19T11:42:56;101395.92;;;11.43;51.94
57885;BME280;43703;51.060;-0.086;2023-02-19T11:45:28;101391.20;;;11.67;51.08
57885;BME280;43703;51.060;-0.086;2023-02-19T11:50:17;101392.39;;;14.45;46.60
57885;BME280;43703;51.060;-0.086;2023-02-19T11:52:41;101397.92;;;12.63;46.49
57885;BME280;43703;51.060;-0.086;2023-02-19T11:55:09;101402.34;;;12.66;46.80
57885;BME280;43703;51.060;-0.086;2023-02-19T11:57:37;101391.31;;;15.13;45.07
57885;BME280;43703;51.060;-0.086;2023-02-19T12:00:00;101386.57;;;14.53;45.34
57885;BME280;43703;51.060;-0.086;2023-02-19T12:07:17;101406.60;;;13.84;45.09
57885;BME280;43703;51.060;-0.086;2023-02-19T12:09:46;101409.27;;;13.19;46.92
57885;BME280;43703;51.060;-0.086;2023-02-19T12:12:14;101398.10;;;16.14;43.68
57885;BME280;43703;51.060;-0.086;2023-02-19T12:14:42;101395.63;;;14.78;43.49
57885;BME280;43703;51.060;-0.086;2023-02-19T12:16:58;101392.34;;;14.58;45.54
57885;BME280;43703;51.060;-0.086;2023-02-19T12:19:29;101394.51;;;14.81;43.49
57885;BME280;43703;51.060;-0.086;2023-02-19T12:21:56;101386.99;;;14.19;43.96
57885;BME280;43703;51.060;-0.086;2023-02-19T12:26:43;101376.85;;;12.44;48.29
57885;BME280;43703;51.060;-0.086;2023-02-19T12:29:15;101378.53;;;12.64;47.05
57885;BME280;43703;51.060;-0.086;2023-02-19T12:31:39;101372.66;;;11.58;49.34
57885;BME280;43703;51.060;-0.086;2023-02-19T12:34:03;101365.97;;;12.99;46.93
57885;BME280;43703;51.060;-0.086;2023-02-19T12:36:24;101369.17;;;14.52;44.78
57885;BME280;43703;51.060;-0.086;2023-02-19T12:38:52;101366.15;;;14.74;46.14
57885;BME280;43703;51.060;-0.086;2023-02-19T12:41:21;101355.57;;;14.47;45.68
57885;BME280;43703;51.060;-0.086;2023-02-19T12:43:39;101349.81;;;17.17;39.28
57885;BME280;43703;51.060;-0.086;2023-02-19T12:46:07;101356.05;;;14.96;41.23
57885;BME280;43703;51.060;-0.086;2023-02-19T12:48:34;101349.12;;;14.07;40.72
57885;BME280;43703;51.060;-0.086;2023-02-19T12:50:57;101336.76;;;12.44;46.04
57885;BME280;43703;51.060;-0.086;2023-02-19T12:53:31;101335.58;;;12.28;45.33
57885;BME280;43703;51.060;-0.086;2023-02-19T12:55:47;101338.98;;;12.43;47.40